createdAt,value
2023-03-11T00:00:43.778Z,94569.66
2023-03-11T00:03:15.100Z,94565.81
2023-03-11T00:05:44.078Z,94569.41
2023-03-11T00:08:14.385Z,94566.63
2023-03-11T00:10:44.533Z,94584.09
2023-03-11T00:13:13.408Z,94599.56
2023-03-11T00:15:41.237Z,94583.28
2023-03-11T00:18:08.189Z,94604.81
2023-03-11T00:20:39.742Z,94593.38
2023-03-11T00:23:08.464Z,94617.09
2023-03-11T00:25:37.504Z,94614.72
2023-03-11T00:28:07.136Z,94612.53
2023-03-11T00:30:34.106Z,94637.69
2023-03-11T00:33:00.965Z,94634.84
2023-03-11T00:35:30.483Z,94625.19
2023-03-11T00:37:59.663Z,94630.84
2023-03-11T00:40:29.733Z,94634.38
2023-03-11T00:42:57.046Z,94638.78
2023-03-11T00:45:23.596Z,94635.16
2023-03-11T00:47:51.519Z,94634.38
2023-03-11T00:50:24.272Z,94636.91
2023-03-11T00:52:52.163Z,94640.97
2023-03-11T00:55:22.463Z,94636.34
2023-03-11T00:57:53.048Z,94644.00
2023-03-11T01:00:20.897Z,94649.56
2023-03-11T01:02:47.422Z,94638.31
2023-03-11T01:05:14.935Z,94652.59
2023-03-11T01:07:41.928Z,94652.00
2023-03-11T01:10:10.757Z,94659.84
2023-03-11T01:12:37.845Z,94659.91
2023-03-11T01:15:05.621Z,94665.38
2023-03-11T01:17:32.095Z,94665.00
2023-03-11T01:19:58.837Z,94657.69
2023-03-11T01:22:25.303Z,94657.97
2023-03-11T01:24:51.716Z,94658.16
2023-03-11T01:27:18.479Z,94658.00
2023-03-11T01:29:44.882Z,94665.09
2023-03-11T01:32:11.454Z,94657.66
2023-03-11T01:34:38.593Z,94643.16
2023-03-11T01:37:05.083Z,94658.84
2023-03-11T01:39:31.583Z,94639.31
2023-03-11T01:41:58.532Z,94637.47
2023-03-11T01:44:25.028Z,94647.53
2023-03-11T01:46:54.589Z,94657.84
2023-03-11T01:49:22.836Z,94650.78
2023-03-11T01:51:53.045Z,94654.81
2023-03-11T01:54:32.515Z,94651.00
2023-03-11T01:57:01.918Z,94660.47
2023-03-11T01:59:36.385Z,94668.47
2023-03-11T02:02:12.490Z,94666.09
2023-03-11T02:04:40.909Z,94660.31
2023-03-11T02:07:10.421Z,94685.06
2023-03-11T02:09:37.146Z,94678.97
2023-03-11T02:12:06.461Z,94677.50
2023-03-11T02:14:34.782Z,94675.75
2023-03-11T02:17:01.394Z,94679.84
2023-03-11T02:19:57.118Z,94673.38
2023-03-11T02:22:24.161Z,94649.88
2023-03-11T02:25:16.157Z,94647.97
2023-03-11T02:27:47.455Z,94657.19
2023-03-11T02:30:15.568Z,94664.84
2023-03-11T02:32:44.771Z,94662.00
2023-03-11T02:35:11.200Z,94675.84
2023-03-11T02:37:37.597Z,94690.91
2023-03-11T02:40:27.311Z,94700.50
2023-03-11T02:42:58.283Z,94701.34
2023-03-11T02:45:26.497Z,94703.34
2023-03-11T02:47:56.699Z,94688.59
2023-03-11T02:50:25.491Z,94700.06
2023-03-11T02:52:51.918Z,94697.97
2023-03-11T02:55:20.553Z,94720.16
2023-03-11T02:57:48.258Z,94715.50
2023-03-11T03:00:17.460Z,94717.09
2023-03-11T03:02:45.764Z,94724.88
2023-03-11T03:05:12.939Z,94718.88
2023-03-11T03:07:39.649Z,94723.72
2023-03-11T03:10:07.382Z,94715.25
2023-03-11T03:12:33.859Z,94734.81
2023-03-11T03:15:00.347Z,94739.97
2023-03-11T03:17:27.298Z,94757.56
2023-03-11T03:19:54.119Z,94749.88
2023-03-11T03:22:20.533Z,94753.47
2023-03-11T03:24:47.253Z,94734.84
2023-03-11T03:27:13.632Z,94741.25
2023-03-11T03:29:40.072Z,94728.06
2023-03-11T03:32:07.158Z,94734.66
2023-03-11T03:34:33.786Z,94752.69
2023-03-11T03:37:00.194Z,94760.25
2023-03-11T03:39:29.401Z,94764.97
2023-03-11T03:41:56.936Z,94773.75
2023-03-11T03:44:23.337Z,94762.69
2023-03-11T03:46:50.426Z,94772.50
2023-03-11T03:49:16.863Z,94763.59
2023-03-11T03:51:43.269Z,94748.06
2023-03-11T03:54:11.928Z,94751.03
2023-03-11T03:56:38.636Z,94764.16
2023-03-11T03:59:05.152Z,94769.38
2023-03-11T04:01:31.939Z,94768.56
2023-03-11T04:03:58.395Z,94779.19
2023-03-11T04:06:27.341Z,94787.91
2023-03-11T04:08:55.192Z,94782.16
2023-03-11T04:11:22.501Z,94789.97
2023-03-11T04:13:49.252Z,94802.94
2023-03-11T04:16:21.010Z,94786.03
2023-03-11T04:18:48.222Z,94792.41
2023-03-11T04:21:15.614Z,94796.72
2023-03-11T04:23:42.047Z,94798.50
2023-03-11T04:26:08.470Z,94801.13
2023-03-11T04:28:35.375Z,94813.88
2023-03-11T04:31:01.968Z,94814.94
2023-03-11T04:33:28.462Z,94816.09
2023-03-11T04:35:55.346Z,94821.31
2023-03-11T04:38:21.808Z,94823.75
2023-03-11T04:40:48.722Z,94824.09
2023-03-11T04:43:15.206Z,94838.72
2023-03-11T04:45:45.412Z,94831.56
2023-03-11T04:48:11.804Z,94829.84
2023-03-11T04:50:38.734Z,94823.13
2023-03-11T04:53:05.190Z,94822.59
2023-03-11T04:55:33.199Z,94820.56
2023-03-11T04:58:00.066Z,94828.19
2023-03-11T05:00:26.609Z,94825.41
2023-03-11T05:02:53.117Z,94825.69
2023-03-11T05:05:20.281Z,94835.94
2023-03-11T05:07:47.371Z,94828.09
2023-03-11T05:10:14.567Z,94833.91
2023-03-11T05:12:41.372Z,94827.25
2023-03-11T05:15:08.592Z,94833.28
2023-03-11T05:17:35.026Z,94830.09
2023-03-11T05:20:01.438Z,94832.06
2023-03-11T05:22:28.329Z,94838.44
2023-03-11T05:24:54.761Z,94844.38
2023-03-11T05:27:21.285Z,94844.16
2023-03-11T05:29:48.274Z,94855.44
2023-03-11T05:32:14.881Z,94853.41
2023-03-11T05:34:41.688Z,94865.19
2023-03-11T05:37:08.882Z,94868.31
2023-03-11T05:39:37.586Z,94858.38
2023-03-11T05:42:04.919Z,94854.72
2023-03-11T05:44:32.194Z,94862.63
2023-03-11T05:46:59.110Z,94875.31
2023-03-11T05:49:25.836Z,94880.34
2023-03-11T05:51:56.740Z,94882.88
2023-03-11T05:54:24.891Z,94887.56
2023-03-11T05:56:51.324Z,94884.25
2023-03-11T05:59:18.133Z,94887.78
2023-03-11T06:01:45.192Z,94874.44
2023-03-11T06:04:11.892Z,94880.84
2023-03-11T06:06:41.068Z,94881.38
2023-03-11T06:09:11.724Z,94882.28
2023-03-11T06:11:38.120Z,94878.69
2023-03-11T06:14:04.521Z,94876.16
2023-03-11T06:16:31.675Z,94878.56
2023-03-11T06:19:00.630Z,94873.50
2023-03-11T06:21:27.250Z,94879.47
2023-03-11T06:23:54.666Z,94883.69
2023-03-11T06:26:22.540Z,94890.69
2023-03-11T06:28:50.673Z,94897.00
2023-03-11T06:31:20.361Z,94901.53
2023-03-11T06:33:47.967Z,94910.28
2023-03-11T06:36:16.182Z,94904.03
2023-03-11T06:38:43.618Z,94895.03
2023-03-11T06:41:10.370Z,94906.16
2023-03-11T06:43:37.496Z,94909.56
2023-03-11T06:46:22.080Z,94909.00
2023-03-11T06:48:52.155Z,94923.59
2023-03-11T06:51:19.694Z,94921.63
2023-03-11T06:53:50.358Z,94931.25
2023-03-11T06:56:16.806Z,94931.50
2023-03-11T06:58:44.106Z,94942.44
2023-03-11T07:01:22.834Z,94939.59
2023-03-11T07:03:50.949Z,94943.38
2023-03-11T07:06:23.342Z,94945.81
2023-03-11T07:08:52.215Z,94934.94
2023-03-11T07:11:26.973Z,94937.25
2023-03-11T07:13:55.189Z,94943.03
2023-03-11T07:16:28.012Z,94949.34
2023-03-11T07:18:59.093Z,94955.53
2023-03-11T07:21:25.616Z,94949.69
2023-03-11T07:23:53.506Z,94976.56
2023-03-11T07:26:20.764Z,94996.53
2023-03-11T07:28:49.287Z,95022.06
2023-03-11T07:31:21.783Z,95039.56
2023-03-11T07:33:48.224Z,95047.13
2023-03-11T07:36:17.342Z,95034.28
2023-03-11T07:38:44.594Z,95027.03
2023-03-11T07:41:13.124Z,95040.31
2023-03-11T07:43:41.388Z,95043.81
2023-03-11T07:46:16.781Z,95044.13
2023-03-11T07:48:43.678Z,95039.66
2023-03-11T07:51:19.176Z,95045.75
2023-03-11T07:53:46.714Z,95053.13
2023-03-11T07:56:14.942Z,95052.28
2023-03-11T07:58:43.070Z,95053.06
2023-03-11T08:01:16.853Z,95053.66
2023-03-11T08:03:45.875Z,95044.84
2023-03-11T08:06:18.540Z,95053.56
2023-03-11T08:08:45.331Z,95049.06
2023-03-11T08:11:15.618Z,95044.84
2023-03-11T08:13:43.948Z,95048.53
2023-03-11T08:16:12.595Z,95051.84
2023-03-11T08:18:39.134Z,95057.44
2023-03-11T08:21:07.715Z,95061.63
2023-03-11T08:23:34.854Z,95056.56
2023-03-11T08:26:10.495Z,95050.88
2023-03-11T08:28:37.537Z,95055.34
2023-03-11T08:31:12.902Z,95055.50
2023-03-11T08:33:39.762Z,95068.94
2023-03-11T08:36:06.749Z,95069.41
2023-03-11T08:38:33.749Z,95072.38
2023-03-11T08:41:00.903Z,95086.44
2023-03-11T08:43:28.066Z,95078.75
2023-03-11T08:45:55.002Z,95078.03
2023-03-11T08:48:21.801Z,95088.56
2023-03-11T08:50:54.227Z,95099.50
2023-03-11T08:53:22.963Z,95113.66
2023-03-11T08:55:51.036Z,95120.72
2023-03-11T08:58:17.940Z,95127.00
2023-03-11T09:00:44.878Z,95145.41
2023-03-11T09:03:11.584Z,95141.16
2023-03-11T09:05:38.034Z,95149.66
2023-03-11T09:08:05.733Z,95135.13
2023-03-11T09:10:32.912Z,95153.53
2023-03-11T09:12:59.341Z,95158.34
2023-03-11T09:15:25.859Z,95165.31
2023-03-11T09:17:53.377Z,95173.03
2023-03-11T09:20:20.275Z,95194.00
2023-03-11T09:22:47.101Z,95187.13
2023-03-11T09:25:14.351Z,95194.00
2023-03-11T09:27:41.421Z,95203.81
2023-03-11T09:30:10.511Z,95209.41
2023-03-11T09:32:37.342Z,95216.50
2023-03-11T09:35:05.022Z,95229.38
2023-03-11T09:37:32.355Z,95233.41
2023-03-11T09:39:58.807Z,95233.59
2023-03-11T09:42:33.999Z,95225.16
2023-03-11T09:45:17.259Z,95216.88
2023-03-11T09:48:08.075Z,95184.47
2023-03-11T09:50:50.063Z,95176.72
2023-03-11T09:53:26.630Z,95186.50
2023-03-11T09:55:59.103Z,95218.13
2023-03-11T09:58:43.286Z,95223.97
2023-03-11T10:01:19.163Z,95226.53
2023-03-11T10:03:46.517Z,95221.91
2023-03-11T10:06:20.601Z,95212.22
2023-03-11T10:09:03.039Z,95212.16
2023-03-11T10:11:45.614Z,95232.00
2023-03-11T10:14:30.049Z,95239.53
2023-03-11T10:17:20.418Z,95249.34
2023-03-11T10:19:56.246Z,95234.47
2023-03-11T10:22:43.110Z,95235.50
2023-03-11T10:25:15.781Z,95234.19
2023-03-11T10:28:01.126Z,95214.50
2023-03-11T10:30:30.054Z,95211.53
2023-03-11T10:33:03.308Z,95228.34
2023-03-11T10:35:41.900Z,95243.19
2023-03-11T10:38:23.254Z,95253.81
2023-03-11T10:40:55.669Z,95264.56
2023-03-11T10:43:31.660Z,95269.72
2023-03-11T10:45:59.014Z,95276.25
2023-03-11T10:48:26.285Z,95270.69
2023-03-11T10:51:02.217Z,95274.38
2023-03-11T10:53:29.305Z,95256.69
2023-03-11T10:55:58.295Z,95254.44
2023-03-11T10:58:28.048Z,95280.25
2023-03-11T11:01:14.450Z,95250.47
2023-03-11T11:03:47.588Z,95246.81
2023-03-11T11:06:31.033Z,95224.97
2023-03-11T11:09:22.438Z,95229.19
2023-03-11T11:12:11.855Z,95251.50
2023-03-11T11:14:50.976Z,95235.00
2023-03-11T11:17:29.049Z,95217.22
2023-03-11T11:19:58.586Z,95222.56
2023-03-11T11:22:25.875Z,95236.59
2023-03-11T11:24:55.037Z,95237.72
2023-03-11T11:27:25.110Z,95263.03
2023-03-11T11:30:16.762Z,95289.09
2023-03-11T11:32:43.878Z,95278.69
2023-03-11T11:35:16.163Z,95273.19
2023-03-11T11:37:46.897Z,95266.44
2023-03-11T11:40:16.567Z,95267.13
2023-03-11T11:42:49.160Z,95265.31
2023-03-11T11:45:32.633Z,95265.03
2023-03-11T11:48:04.987Z,95274.63
2023-03-11T11:50:37.555Z,95289.31
2023-03-11T11:53:27.903Z,95281.59
2023-03-11T11:55:54.760Z,95273.16
2023-03-11T11:58:22.318Z,95262.03
2023-03-11T12:01:00.667Z,95257.34
2023-03-11T12:03:46.807Z,95254.56
2023-03-11T12:06:27.239Z,95233.88
2023-03-11T12:09:14.673Z,95229.19
2023-03-11T12:11:51.860Z,95229.78
2023-03-11T12:14:30.998Z,95240.50
2023-03-11T12:17:03.282Z,95239.97
2023-03-11T12:19:48.596Z,95254.91
2023-03-11T12:22:15.606Z,95250.47
2023-03-11T12:25:12.929Z,95234.06
2023-03-11T12:27:49.976Z,95241.53
2023-03-11T12:30:31.104Z,95228.16
2023-03-11T12:33:32.211Z,95222.81
2023-03-11T12:36:00.585Z,95220.00
2023-03-11T12:38:35.778Z,95216.69
2023-03-11T12:41:03.633Z,95206.28
2023-03-11T12:43:50.336Z,95206.06
2023-03-11T12:46:17.919Z,95208.28
2023-03-11T12:48:45.989Z,95209.91
2023-03-11T12:51:28.316Z,95202.00
2023-03-11T12:53:55.573Z,95203.66
2023-03-11T12:56:31.076Z,95207.47
2023-03-11T12:59:34.664Z,95210.78
2023-03-11T13:02:10.246Z,95202.91
2023-03-11T13:04:59.183Z,95201.81
2023-03-11T13:07:52.749Z,95192.25
2023-03-11T13:10:35.824Z,95185.91
2023-03-11T13:13:21.995Z,95186.88
2023-03-11T13:15:48.607Z,95182.84
2023-03-11T13:18:23.707Z,95183.59
2023-03-11T13:20:51.908Z,95186.44
2023-03-11T13:23:30.840Z,95188.09
2023-03-11T13:25:57.611Z,95190.13
2023-03-11T13:28:44.076Z,95187.72
2023-03-11T13:31:40.737Z,95199.84
2023-03-11T13:34:07.149Z,95207.16
2023-03-11T13:36:42.080Z,95211.16
2023-03-11T13:39:14.441Z,95216.84
2023-03-11T13:41:45.074Z,95206.44
2023-03-11T13:44:23.782Z,95221.25
2023-03-11T13:47:09.024Z,95225.75
2023-03-11T13:49:42.472Z,95230.91
2023-03-11T13:52:22.231Z,95220.63
2023-03-11T13:54:58.166Z,95217.97
2023-03-11T13:57:33.599Z,95218.75
2023-03-11T14:00:16.535Z,95208.66
2023-03-11T14:03:10.716Z,95216.00
2023-03-11T14:05:42.845Z,95215.66
2023-03-11T14:08:27.566Z,95221.31
2023-03-11T14:10:59.785Z,95221.63
2023-03-11T14:13:33.080Z,95225.28
2023-03-11T14:16:10.759Z,95228.97
2023-03-11T14:18:39.119Z,95238.31
2023-03-11T14:21:13.047Z,95238.31
2023-03-11T14:23:49.380Z,95240.91
2023-03-11T14:26:22.288Z,95258.03
2023-03-11T14:29:11.065Z,95253.19
2023-03-11T14:31:39.478Z,95256.25
2023-03-11T14:34:21.064Z,95253.34
2023-03-11T14:36:55.264Z,95246.66
2023-03-11T14:39:31.388Z,95254.94
2023-03-11T14:42:04.060Z,95256.91
2023-03-11T14:44:34.333Z,95254.09
2023-03-11T14:47:07.604Z,95248.66
2023-03-11T14:49:34.788Z,95252.59
2023-03-11T14:52:08.354Z,95257.88
2023-03-11T14:54:37.181Z,95259.78
2023-03-11T14:57:24.360Z,95263.75
2023-03-11T14:59:52.944Z,95272.25
2023-03-11T15:02:40.674Z,95270.19
2023-03-11T15:05:17.681Z,95274.69
2023-03-11T15:07:44.949Z,95270.22
2023-03-11T15:10:12.432Z,95265.22
2023-03-11T15:12:44.933Z,95258.38
2023-03-11T15:15:27.392Z,95254.13
2023-03-11T15:17:59.382Z,95246.81
2023-03-11T15:20:31.714Z,95246.78
2023-03-11T15:23:06.395Z,95253.88
2023-03-11T15:25:36.203Z,95260.16
2023-03-11T15:28:25.542Z,95262.56
2023-03-11T15:31:27.489Z,95258.50
2023-03-11T15:33:54.812Z,95264.59
2023-03-11T15:36:33.404Z,95262.31
2023-03-11T15:39:12.726Z,95263.91
2023-03-11T15:41:43.356Z,95266.19
2023-03-11T15:44:28.884Z,95270.91
2023-03-11T15:46:55.790Z,95272.97
2023-03-11T15:49:22.215Z,95281.50
2023-03-11T15:51:49.012Z,95288.19
2023-03-11T15:54:15.433Z,95296.25
2023-03-11T15:56:42.602Z,95294.06
2023-03-11T15:59:18.466Z,95303.28
2023-03-11T16:01:46.246Z,95315.59
2023-03-11T16:04:15.477Z,95313.47
2023-03-11T16:06:43.551Z,95311.25
2023-03-11T16:09:11.964Z,95312.09
2023-03-11T16:11:39.477Z,95314.69
2023-03-11T16:14:06.299Z,95312.19
2023-03-11T16:16:33.700Z,95317.53
2023-03-11T16:19:00.112Z,95322.38
2023-03-11T16:21:35.299Z,95328.03
2023-03-11T16:24:02.089Z,95339.72
2023-03-11T16:26:30.365Z,95333.75
2023-03-11T16:29:01.573Z,95343.03
2023-03-11T16:31:34.691Z,95336.16
2023-03-11T16:34:01.450Z,95347.56
2023-03-11T16:36:27.961Z,95353.88
2023-03-11T16:38:54.731Z,95367.50
2023-03-11T16:41:21.359Z,95360.50
2023-03-11T16:43:47.969Z,95358.66
2023-03-11T16:46:14.825Z,95365.31
2023-03-11T16:48:41.735Z,95360.22
2023-03-11T16:51:08.243Z,95371.06
2023-03-11T16:53:34.645Z,95377.22
2023-03-11T16:56:01.574Z,95378.41
2023-03-11T16:58:28.123Z,95368.97
2023-03-11T17:00:54.514Z,95371.84
2023-03-11T17:03:22.037Z,95369.53
2023-03-11T17:05:48.787Z,95364.19
2023-03-11T17:08:18.546Z,95364.88
2023-03-11T17:10:46.287Z,95369.88
2023-03-11T17:13:14.086Z,95371.25
2023-03-11T17:15:44.744Z,95377.50
2023-03-11T17:18:11.957Z,95375.34
2023-03-11T17:20:40.334Z,95376.56
2023-03-11T17:23:07.212Z,95372.59
2023-03-11T17:25:33.599Z,95379.09
2023-03-11T17:28:00.096Z,95380.13
2023-03-11T17:30:36.323Z,95387.72
2023-03-11T17:33:03.922Z,95396.78
2023-03-11T17:35:30.414Z,95392.00
2023-03-11T17:37:56.858Z,95396.69
2023-03-11T17:40:23.403Z,95398.06
2023-03-11T17:42:50.224Z,95412.38
2023-03-11T17:45:16.799Z,95410.31
2023-03-11T17:47:44.032Z,95410.94
2023-03-11T17:50:11.899Z,95409.16
2023-03-11T17:52:38.424Z,95423.91
2023-03-11T17:55:05.408Z,95418.28
2023-03-11T17:57:39.896Z,95428.50
2023-03-11T18:00:14.253Z,95426.41
2023-03-11T18:02:40.870Z,95441.69
2023-03-11T18:05:07.769Z,95439.44
2023-03-11T18:07:38.923Z,95438.00
2023-03-11T18:10:06.924Z,95439.44
2023-03-11T18:12:33.773Z,95447.38
2023-03-11T18:15:04.216Z,95452.25
2023-03-11T18:17:30.650Z,95463.09
2023-03-11T18:19:59.794Z,95465.25
2023-03-11T18:22:27.066Z,95469.41
2023-03-11T18:24:54.360Z,95467.84
2023-03-11T18:27:20.789Z,95475.00
2023-03-11T18:29:47.178Z,95481.25
2023-03-11T18:32:14.102Z,95487.72
2023-03-11T18:34:41.641Z,95483.53
2023-03-11T18:37:08.381Z,95478.41
2023-03-11T18:39:35.306Z,95487.13
2023-03-11T18:42:02.858Z,95488.75
2023-03-11T18:44:29.341Z,95499.28
2023-03-11T18:46:56.130Z,95493.44
2023-03-11T18:49:22.581Z,95500.06
2023-03-11T18:51:49.474Z,95504.00
2023-03-11T18:54:15.858Z,95504.72
2023-03-11T18:56:42.414Z,95513.72
2023-03-11T18:59:10.726Z,95516.84
2023-03-11T19:01:37.207Z,95522.56
2023-03-11T19:04:03.737Z,95524.38
2023-03-11T19:06:30.536Z,95528.63
2023-03-11T19:08:57.868Z,95537.44
2023-03-11T19:11:25.372Z,95541.03
2023-03-11T19:13:53.117Z,95558.66
2023-03-11T19:16:22.909Z,95550.50
2023-03-11T19:18:51.236Z,95563.09
2023-03-11T19:21:18.505Z,95559.63
2023-03-11T19:23:45.577Z,95564.22
2023-03-11T19:26:12.440Z,95569.09
2023-03-11T19:28:39.534Z,95578.06
2023-03-11T19:31:06.453Z,95589.28
2023-03-11T19:33:33.297Z,95591.59
2023-03-11T19:36:02.983Z,95595.75
2023-03-11T19:38:29.918Z,95587.41
2023-03-11T19:41:04.756Z,95595.41
2023-03-11T19:43:31.768Z,95601.22
2023-03-11T19:45:58.292Z,95598.06
2023-03-11T19:48:25.162Z,95604.88
2023-03-11T19:50:52.159Z,95609.25
2023-03-11T19:53:19.787Z,95606.63
2023-03-11T19:55:49.816Z,95613.41
2023-03-11T19:58:16.371Z,95621.16
2023-03-11T20:00:44.724Z,95616.22
2023-03-11T20:03:12.117Z,95627.31
2023-03-11T20:05:40.346Z,95631.91
2023-03-11T20:08:08.313Z,95631.34
2023-03-11T20:10:39.534Z,95650.03
2023-03-11T20:13:06.248Z,95659.09
2023-03-11T20:15:33.668Z,95657.41
2023-03-11T20:18:01.436Z,95660.63
2023-03-11T20:20:30.680Z,95672.03
2023-03-11T20:22:58.176Z,95674.38
2023-03-11T20:25:29.468Z,95687.28
2023-03-11T20:27:55.881Z,95684.50
2023-03-11T20:30:24.618Z,95685.31
2023-03-11T20:32:51.390Z,95690.81
2023-03-11T20:35:18.157Z,95693.88
2023-03-11T20:37:45.785Z,95696.09
2023-03-11T20:40:15.083Z,95703.84
2023-03-11T20:42:47.203Z,95701.97
2023-03-11T20:45:21.611Z,95697.53
2023-03-11T20:47:54.041Z,95706.06
2023-03-11T20:50:21.769Z,95702.63
2023-03-11T20:52:49.008Z,95703.75
2023-03-11T20:55:15.964Z,95708.44
2023-03-11T20:57:42.435Z,95716.03
2023-03-11T21:00:12.086Z,95708.94
2023-03-11T21:02:40.592Z,95716.34
2023-03-11T21:05:08.616Z,95709.97
2023-03-11T21:07:35.771Z,95714.41
2023-03-11T21:10:04.130Z,95719.38
2023-03-11T21:12:31.426Z,95713.09
2023-03-11T21:14:57.956Z,95718.47
2023-03-11T21:17:24.822Z,95717.25
2023-03-11T21:19:51.331Z,95715.63
2023-03-11T21:22:17.866Z,95711.38
2023-03-11T21:24:45.545Z,95703.19
2023-03-11T21:27:12.097Z,95705.94
2023-03-11T21:29:38.570Z,95704.28
2023-03-11T21:32:06.023Z,95707.84
2023-03-11T21:34:32.552Z,95669.78
2023-03-11T21:36:59.065Z,95637.53
2023-03-11T21:39:25.983Z,95626.84
2023-03-11T21:41:55.037Z,95627.13
2023-03-11T21:44:21.475Z,95624.84
2023-03-11T21:46:48.368Z,95626.19
2023-03-11T21:49:14.918Z,95339.94
2023-03-11T21:51:42.099Z,95359.53
2023-03-11T21:54:10.431Z,95370.72
2023-03-11T21:56:36.938Z,95387.03
2023-03-11T21:59:04.342Z,95401.59
2023-03-11T22:01:31.111Z,95405.69
2023-03-11T22:03:57.602Z,95410.50
2023-03-11T22:06:24.836Z,95411.75
2023-03-11T22:08:51.425Z,95423.41
2023-03-11T22:11:19.321Z,95419.34
2023-03-11T22:13:52.107Z,95429.66
2023-03-11T22:16:19.967Z,95433.38
2023-03-11T22:18:47.427Z,95427.63
2023-03-11T22:21:17.821Z,95428.63
2023-03-11T22:23:45.270Z,95432.75
2023-03-11T22:26:13.649Z,95433.06
2023-03-11T22:28:40.167Z,95430.06
2023-03-11T22:31:13.007Z,95430.91
2023-03-11T22:33:40.287Z,95435.25
2023-03-11T22:36:07.753Z,95430.91
2023-03-11T22:38:35.006Z,95432.81
2023-03-11T22:41:04.805Z,95437.78
2023-03-11T22:43:31.340Z,95431.09
2023-03-11T22:45:59.791Z,95433.09
2023-03-11T22:48:28.942Z,95434.38
2023-03-11T22:50:55.456Z,95442.22
2023-03-11T22:53:23.768Z,95441.03
2023-03-11T22:55:51.124Z,95440.81
2023-03-11T22:58:18.207Z,95445.59
2023-03-11T23:00:45.153Z,95446.94
2023-03-11T23:03:12.629Z,95450.78
2023-03-11T23:05:42.454Z,95448.03
2023-03-11T23:08:16.018Z,95453.47
2023-03-11T23:10:45.565Z,95450.13
2023-03-11T23:13:12.707Z,95451.94
2023-03-11T23:15:47.453Z,95453.69
2023-03-11T23:18:15.449Z,95455.50
2023-03-11T23:20:42.882Z,95457.69
2023-03-11T23:23:10.468Z,95451.94
2023-03-11T23:25:38.690Z,95453.94
2023-03-11T23:28:06.909Z,95452.91
2023-03-11T23:30:34.053Z,95454.13
2023-03-11T23:33:03.230Z,95448.44
2023-03-11T23:35:30.569Z,95444.06
2023-03-11T23:37:57.123Z,95444.06
2023-03-11T23:40:24.196Z,95451.84
2023-03-11T23:42:50.814Z,95450.91
2023-03-11T23:45:18.948Z,95439.34
2023-03-11T23:47:45.893Z,95441.38
2023-03-11T23:50:12.410Z,95433.09
2023-03-11T23:52:38.828Z,95418.59
2023-03-11T23:55:06.094Z,95418.78
2023-03-11T23:57:34.933Z,95421.38
